Flight Track Log - Related Links

Times and Time Zones

All times are in EDT time to prevent confusion due to time zone crossing. See the DAL268 flight status page for this flight to view local times or setup timezone preferences in your user account.

Time Position Orientation Groundspeed Altitude Reporting Facility
EDT Latitude Longitude Course Direction KTS MPH feet Rate Location/Type
Thu 02:43:59 PM 37.6359 -122.3600 40° Northeast 173 199 800  Level FlightAware ADS-B
Thu 02:44:03 PM 37.6384 -122.3570 44° Northeast 174 200 1,000 2,526 Climbing FlightAware ADS-B
Thu 02:44:18 PM 37.6465 -122.3460 47° Northeast 178 205 1,600 2,000 Climbing FlightAware ADS-B
Thu 02:44:33 PM 37.6559 -122.3340 45° Northeast 201 231 2,000 1,800 Climbing FlightAware ADS-B
Thu 02:44:48 PM 37.6664 -122.3200 47° Northeast 213 245 2,500 2,129 Climbing FlightAware ADS-B
Thu 02:45:04 PM 37.6779 -122.3060 44° Northeast 229 264 3,100 1,765 Climbing FlightAware ADS-B
Thu 02:45:22 PM 37.6922 -122.2870 46° Northeast 257 296 3,500 1,714 Climbing FlightAware ADS-B
Thu 02:45:46 PM 37.7130 -122.2600 46° Northeast 279 321 4,300 2,690 Climbing FlightAware ADS-B
Thu 02:46:20 PM 37.7460 -122.2230 42° Northeast 283 326 6,100 3,061 Climbing FlightAware ADS-B
Thu 02:46:35 PM 37.7622 -122.2070 38° Northeast 280 322 6,800 2,786 Climbing FlightAware ADS-B
Thu 02:46:48 PM 37.7760 -122.1940 37° Northeast 289 333 7,400 2,714 Climbing FlightAware ADS-B
Thu 02:47:17 PM 37.8065 -122.1650 37° Northeast 292 336 8,700 2,591 Climbing FlightAware ADS-B
Thu 02:47:32 PM 37.8239 -122.1480 38° Northeast 301 346 9,300 2,323 Climbing FlightAware ADS-B
Thu 02:47:48 PM 37.8418 -122.1310 37° Northeast 307 353 9,900 1,787 Climbing FlightAware ADS-B
Thu 02:48:19 PM 37.8778 -122.0970 37° Northeast 333 383 10,700 1,377 Climbing FlightAware ADS-B
Thu 02:48:49 PM 37.9169 -122.0600 37° Northeast 365 420 11,300 1,180 Climbing FlightAware ADS-B
Thu 02:49:20 PM 37.9614 -122.0170 37° Northeast 391 450 11,900 1,548 Climbing FlightAware ADS-B
Thu 02:49:51 PM 38.0060 -121.9750 37° Northeast 403 464 12,900 2,000 Climbing FlightAware ADS-B
Thu 02:50:26 PM 38.0587 -121.9240 37° Northeast 410 472 14,100 2,108 Climbing FlightAware ADS-B
Thu 02:51:42 PM 38.1760 -121.8110 37° Northeast 426 490 16,800 2,034 Climbing FlightAware ADS-B
Thu 02:52:24 PM 38.2420 -121.7470 37° Northeast 433 498 18,100 1,744 Climbing FlightAware ADS-B
Thu 02:53:08 PM 38.3130 -121.6790 37° Northeast 445 512 19,300 1,747 Climbing FlightAware ADS-B
Thu 02:53:43 PM 38.3725 -121.6210 37° Northeast 451 519 20,400 1,692 Climbing FlightAware ADS-B
Thu 02:54:26 PM 38.4400 -121.5490 40° Northeast 462 532 21,500 1,456 Climbing FlightAware ADS-B
Thu 02:55:26 PM 38.5230 -121.4180 51° Northeast 474 545 22,900 1,442 Climbing FlightAware ADS-B
Thu 02:56:10 PM 38.5800 -121.3190 54° Northeast 482 555 24,000 1,516 Climbing FlightAware ADS-B
Thu 02:56:57 PM 38.6439 -121.2080 54° Northeast 486 559 25,200 1,500 Climbing FlightAware ADS-B
Thu 02:57:30 PM 38.6860 -121.1340 54° Northeast 493 567 26,000 1,397 Climbing FlightAware ADS-B
Thu 02:58:10 PM 38.7400 -121.0420 53° Northeast 498 573 26,900 1,364 Climbing FlightAware ADS-B
Thu 02:58:58 PM 38.8060 -120.9270 54° Northeast 502 578 28,000 1,412 Climbing FlightAware ADS-B
Thu 02:59:52 PM 38.8790 -120.8010 53° Northeast 501 577 29,300 1,630 Climbing FlightAware ADS-B
Thu 03:00:30 PM 38.9320 -120.7090 53° Northeast 496 571 30,500 1,690 Climbing FlightAware ADS-B
Thu 03:01:03 PM 38.9780 -120.6290 53° Northeast 495 570 31,300 1,579 Climbing FlightAware ADS-B
Thu 03:01:46 PM 39.0380 -120.5250 53° Northeast 490 564 32,500 1,553 Climbing FlightAware ADS-B
Thu 03:02:28 PM 39.0950 -120.4260 53° Northeast 487 560 33,500 1,224 Climbing FlightAware ADS-B
Thu 03:03:24 PM 39.1690 -120.2960 54° Northeast 490 564 34,500 1,137 Climbing FlightAware ADS-B
Thu 03:04:03 PM 39.2190 -120.2090 53° Northeast 484 557 35,300 1,229 Climbing FlightAware ADS-B
Thu 03:04:47 PM 39.2790 -120.1040 54° Northeast 483 556 36,200 1,116 Climbing FlightAware ADS-B
Thu 03:05:29 PM 39.3340 -120.0060 54° Northeast 483 556 36,900 571 Climbing FlightAware ADS-B
Thu 03:06:11 PM 39.3910 -119.9050 54° Northeast 482 555 37,000 71 Climbing FlightAware ADS-B
Thu 03:06:53 PM 39.4450 -119.8100 54° Northeast 480 552 37,000  Level FlightAware ADS-B
Thu 03:07:33 PM 39.4970 -119.7170 54° Northeast 477 549 37,000  Level FlightAware ADS-B
Thu 03:08:17 PM 39.5550 -119.6140 54° Northeast 479 551 37,000  Level FlightAware ADS-B
Thu 03:09:01 PM 39.6110 -119.5120 55° Northeast 482 555 37,000  Level FlightAware ADS-B
Thu 03:09:43 PM 39.6670 -119.4130 54° Northeast 482 555 37,000  Level FlightAware ADS-B
Thu 03:10:40 PM 39.7370 -119.2820 55° Northeast 481 554 37,000  Level FlightAware ADS-B
Thu 03:11:19 PM 39.7740 -119.1750 66° East 479 551 37,000  Level FlightAware ADS-B
Thu 03:12:03 PM 39.8150 -119.0590 65° Northeast 485 558 37,000  Level FlightAware ADS-B
Thu 03:12:37 PM 39.8480 -118.9690 64° Northeast 483 556 37,000  Level FlightAware ADS-B
Thu 03:13:27 PM 39.8970 -118.8410 63° Northeast 483 556 37,000  Level FlightAware ADS-B
Thu 03:14:06 PM 39.9340 -118.7420 64° Northeast 485 558 37,000  Level FlightAware ADS-B
Thu 03:14:49 PM 39.9780 -118.6260 64° Northeast 488 562 37,000  Level FlightAware ADS-B
Thu 03:14:57 PM 39.9860 -118.6040 65° Northeast 488 562 37,000  Level FlightAware ADS-B
Thu 03:20:15 PM 40.2500 -117.8650 65° Northeast 486 559 37,000  Level FlightAware ADS-B
Thu 03:21:17 PM 40.3000 -117.7240 65° Northeast 486 559 37,000  Level FlightAware ADS-B
Thu 03:21:53 PM 40.3290 -117.6420 65° Northeast 486 559 37,000  Level FlightAware ADS-B
Thu 03:22:31 PM 40.3600 -117.5560 65° Northeast 486 559 37,000  Level FlightAware ADS-B
Thu 03:22:59 PM 40.3820 -117.4920 66° East 486 559 37,000  Level FlightAware ADS-B
Thu 03:23:45 PM 40.4190 -117.3870 65° Northeast 486 559 37,000  Level FlightAware ADS-B
Thu 03:24:24 PM 40.4510 -117.2990 64° Northeast 486 559 37,000  Level FlightAware ADS-B
Thu 03:25:51 PM 40.5210 -117.1000 65° Northeast 486 559 37,000  Level FlightAware ADS-B
Thu 03:31:07 PM 40.9329 -115.9830 64° Northeast 497 572 37,000  Level FlightAware ADS-B
Thu 03:31:38 PM 40.9649 -115.8990 63° Northeast 496 571 37,000  Level FlightAware ADS-B
Thu 03:32:23 PM 41.0110 -115.7780 63° Northeast 496 571 37,000  Level FlightAware ADS-B
Thu 03:32:55 PM 41.0439 -115.6910 63° Northeast 499 574 37,000  Level FlightAware ADS-B
Thu 03:33:57 PM 41.1075 -115.5220 63° Northeast 500 575 37,000  Level FlightAware ADS-B
Thu 03:34:37 PM 41.1486 -115.4120 64° Northeast 500 575 37,000  Level FlightAware ADS-B
Thu 03:35:07 PM 41.1796 -115.3290 64° Northeast 499 574 37,000  Level FlightAware ADS-B
Thu 03:35:37 PM 41.2103 -115.2470 64° Northeast 497 572 37,000  Level FlightAware ADS-B
Thu 03:36:07 PM 41.2410 -115.1640 64° Northeast 496 571 37,000  Level FlightAware ADS-B
Thu 03:36:38 PM 41.2718 -115.0810 64° Northeast 496 571 37,000  Level FlightAware ADS-B
Thu 03:37:09 PM 41.3028 -114.9970 64° Northeast 496 571 37,000  Level FlightAware ADS-B
Thu 03:37:40 PM 41.3346 -114.9100 64° Northeast 497 572 37,000  Level FlightAware ADS-B
Thu 03:38:23 PM 41.3779 -114.7920 64° Northeast 499 574 37,000  Level FlightAware ADS-B
Thu 03:39:14 PM 41.4292 -114.6520 64° Northeast 499 574 37,000  Level FlightAware ADS-B
Thu 03:39:45 PM 41.4596 -114.5680 64° Northeast 496 571 37,000  Level FlightAware ADS-B
Thu 03:40:15 PM 41.4896 -114.4850 64° Northeast 495 570 37,000  Level FlightAware ADS-B
Thu 03:40:45 PM 41.5194 -114.4030 64° Northeast 495 570 37,000  Level FlightAware ADS-B
Thu 03:41:15 PM 41.5495 -114.3190 64° Northeast 493 567 37,000  Level FlightAware ADS-B
Thu 03:41:47 PM 41.5804 -114.2330 64° Northeast 494 568 37,000  Level FlightAware ADS-B
Thu 03:42:18 PM 41.6107 -114.1490 64° Northeast 495 570 37,000  Level FlightAware ADS-B
Thu 03:42:48 PM 41.6409 -114.0640 65° Northeast 494 568 37,000  Level FlightAware ADS-B
Thu 03:43:35 PM 41.6860 -113.9360 65° Northeast 496 571 37,000  Level FlightAware ADS-B
Thu 03:43:51 PM 41.7027 -113.8900 64° Northeast 495 570 37,000  Level FlightAware ADS-B
Thu 03:44:21 PM 41.7322 -113.8070 65° Northeast 498 573 37,000  Level FlightAware ADS-B
Thu 03:44:56 PM 41.7666 -113.7100 65° Northeast 495 570 37,000  Level FlightAware ADS-B
Thu 03:45:27 PM 41.7964 -113.6250 65° Northeast 495 570 37,000  Level FlightAware ADS-B
Thu 03:45:58 PM 41.8268 -113.5380 65° Northeast 496 571 37,000  Level FlightAware ADS-B
Thu 03:46:28 PM 41.8550 -113.4570 65° Northeast 496 571 37,000  Level FlightAware ADS-B
Thu 03:47:00 PM 41.8872 -113.3650 65° Northeast 497 572 37,000  Level FlightAware ADS-B
Thu 03:47:32 PM 41.9181 -113.2760 65° Northeast 497 572 37,000  Level FlightAware ADS-B
Thu 03:48:36 PM 41.9780 -113.1020 65° Northeast 497 572 37,000  Level FlightAware ADS-B
Thu 03:48:46 PM 41.9889 -113.0710 65° Northeast 498 573 37,000  Level FlightAware ADS-B
Thu 03:49:43 PM 42.0440 -112.9100 65° Northeast 498 573 37,000  Level FlightAware ADS-B
Thu 03:50:42 PM 42.1005 -112.7450 65° Northeast 501 577 37,000  Level FlightAware ADS-B
Thu 03:51:24 PM 42.1410 -112.6250 65° Northeast 497 572 37,000  Level FlightAware ADS-B
Thu 03:51:51 PM 42.1667 -112.5490 65° Northeast 499 574 37,000  Level FlightAware ADS-B
Thu 03:52:54 PM 42.2260 -112.3720 66° East 499 574 37,000  Level FlightAware ADS-B
Thu 03:53:42 PM 42.2650 -112.2540 66° East 500 575 37,000  Level FlightAware ADS-B
Thu 03:54:00 PM 42.2878 -112.1820 67° East 499 574 37,000  Level FlightAware ADS-B
Thu 03:54:48 PM 42.3322 -112.0460 66° East 500 575 37,000  Level FlightAware ADS-B
Thu 03:55:18 PM 42.3599 -111.9600 66° East 501 577 37,000  Level FlightAware ADS-B
Thu 03:55:49 PM 42.3886 -111.8710 66° East 500 575 37,000  Level FlightAware ADS-B
Thu 03:56:20 PM 42.4162 -111.7850 66° East 498 573 37,000  Level FlightAware ADS-B
Thu 03:57:34 PM 42.4843 -111.5720 67° East 500 575 37,000  Level FlightAware ADS-B
Thu 03:58:04 PM 42.5122 -111.4840 67° East 500 575 37,000  Level FlightAware ADS-B
Thu 03:59:08 PM 42.5670 -111.3150 66° East 500 575 37,000  Level FlightAware ADS-B
Thu 03:59:57 PM 42.6060 -111.1950 66° East 500 575 37,000  Level FlightAware ADS-B
Thu 04:03:58 PM 42.7980 -110.6060 66° East 500 575 37,000  Level FlightAware ADS-B
Thu 04:04:39 PM 42.8310 -110.5060 66° East 500 575 37,000  Level FlightAware ADS-B
Thu 04:07:03 PM 42.9460 -110.1530 66° East 500 575 37,000  Level FlightAware ADS-B
Thu 04:08:04 PM 42.9950 -110.0030 66° East 500 575 37,000  Level FlightAware ADS-B
Thu 04:09:00 PM 43.0881 -109.6058 66° East 501 577 37,000  Level Salt Lake Center
Thu 04:10:02 PM 43.1378 -109.4361 68° East 501 577 37,000  Level Salt Lake Center
Thu 04:11:04 PM 43.1953 -109.2403 68° East 498 573 37,000  Level Salt Lake Center
Thu 04:12:06 PM 43.2439 -109.0711 68° East 498 573 37,000  Level Salt Lake Center
Thu 04:13:08 PM 43.3017 -108.8731 68° East 499 574 37,000  Level Salt Lake Center
Thu 04:14:09 PM 43.3506 -108.7044 68° East 497 572 37,000  Level Salt Lake Center
Thu 04:15:12 PM 43.4075 -108.5064 68° East 497 572 37,000  Level Salt Lake Center
Thu 04:16:14 PM 43.4544 -108.3350 69° East 499 574 37,000  Level Salt Lake Center
Thu 04:17:16 PM 43.4861 -108.1267 78° East 499 574 37,000  Level Salt Lake Center
Thu 04:18:18 PM 43.5072 -107.9450 81° East 500 575 37,000  Level Salt Lake Center
Thu 04:19:20 PM 43.5286 -107.7608 81° East 506 582 37,000  Level Salt Lake Center
Thu 04:20:22 PM 43.5542 -107.5461 81° East 508 585 37,000  Level Salt Lake Center
Thu 04:21:24 PM 43.5747 -107.3619 81° East 508 585 37,000  Level Salt Lake Center
Thu 04:22:26 PM 43.5969 -107.1625 81° East 498 573 37,000  Level Salt Lake Center
Thu 04:23:21 PM 43.6156 -106.9806 82° East 497 572 37,000  Level Denver Center
Thu 04:24:23 PM 43.6361 -106.7969 81° East 503 579 37,000  Level Denver Center
Thu 04:25:25 PM 43.6581 -106.5806 82° East 508 585 37,000  Level Denver Center
Thu 04:26:27 PM 43.6772 -106.3983 82° East 504 580 37,000  Level Denver Center
Thu 04:27:29 PM 43.6997 -106.1850 82° East 503 579 37,000  Level Denver Center
Thu 04:28:31 PM 43.7189 -106.0017 82° East 503 579 37,000  Level Denver Center
Thu 04:29:33 PM 43.7400 -105.7853 82° East 506 582 37,000  Level Denver Center
Thu 04:30:36 PM 43.7572 -105.6003 83° East 506 582 37,000  Level Denver Center
Thu 04:31:38 PM 43.7781 -105.3836 82° East 506 582 37,000  Level Denver Center
Thu 04:32:40 PM 43.7956 -105.1983 82° East 507 583 37,000  Level Denver Center
Thu 04:33:42 PM 43.8128 -105.0125 83° East 507 583 37,000  Level Denver Center
Thu 04:34:44 PM 43.8319 -104.7956 83° East 507 583 37,000  Level Denver Center
Thu 04:35:46 PM 43.8489 -104.6078 83° East 509 586 37,000  Level Denver Center
Thu 04:36:48 PM 43.8675 -104.3911 83° East 508 585 37,000  Level Denver Center
Thu 04:37:50 PM 43.8839 -104.2103 83° East 503 579 37,000  Level Denver Center
Thu 04:38:52 PM 43.9022 -103.9936 83° East 504 580 37,000  Level Denver Center
Thu 04:39:54 PM 43.9172 -103.8067 84° East 508 585 37,000  Level Denver Center
Thu 04:40:56 PM 43.9347 -103.5906 84° East 506 582 37,000  Level Denver Center
Thu 04:41:58 PM 43.9486 -103.4044 84° East 506 582 37,000  Level Denver Center
Thu 04:43:00 PM 43.9658 -103.1861 84° East 508 585 37,000  Level Denver Center
Thu 04:44:02 PM 43.9817 -102.9992 83° East 510 587 37,000  Level Denver Center
Thu 04:45:04 PM 44.0200 -102.8036 75° East 506 582 37,000  Level Denver Center
Thu 04:46:06 PM 44.0550 -102.6178 75° East 499 574 37,000  Level Denver Center
Thu 04:47:08 PM 44.0917 -102.4336 74° East 496 571 37,000  Level Denver Center
Thu 04:48:10 PM 44.1267 -102.2453 75° East 501 577 37,000  Level Denver Center
Thu 04:49:12 PM 44.1617 -102.0589 75° East 500 575 37,000  Level Denver Center
Thu 04:50:14 PM 44.2042 -101.8350 75° East 500 575 37,000  Level Denver Center
Thu 04:51:16 PM 44.2372 -101.6478 76° East 500 575 37,000  Level Denver Center
Thu 04:52:18 PM 44.2708 -101.4592 76° East 500 575 37,000  Level Denver Center
Thu 04:53:25 PM 44.3142 -101.2381 75° East 500 575 37,000  Level Minneapolis Center
Thu 04:54:27 PM 44.3472 -101.0503 76° East 500 575 37,000  Level Minneapolis Center
Thu 04:55:29 PM 44.3808 -100.8636 76° East 499 574 37,000  Level Minneapolis Center
Thu 04:56:31 PM 44.4147 -100.6756 76° East 500 575 37,000  Level Minneapolis Center
Thu 04:57:33 PM 44.4475 -100.4872 76° East 500 575 37,000  Level Minneapolis Center
Thu 04:58:35 PM 44.4797 -100.2992 76° East 501 577 37,000  Level Minneapolis Center
Thu 04:59:38 PM 44.5183 -100.0725 76° East 502 578 37,000  Level Minneapolis Center
Thu 05:00:40 PM 44.5508 -99.8828 76° East 505 581 37,000  Level Minneapolis Center
Thu 05:01:42 PM 44.5833 -99.6931 76° East 505 581 37,000  Level Minneapolis Center
Thu 05:02:44 PM 44.6142 -99.5022 77° East 506 582 37,000  Level Minneapolis Center
Thu 05:03:46 PM 44.6389 -99.3078 80° East 509 586 37,000  Level Minneapolis Center
Thu 05:04:48 PM 44.6650 -99.0722 81° East 511 588 37,000  Level Minneapolis Center
Thu 05:05:50 PM 44.6864 -98.8767 81° East 510 587 37,000  Level Minneapolis Center
Thu 05:06:52 PM 44.7072 -98.6792 81° East 511 588 37,000  Level Minneapolis Center
Thu 05:07:54 PM 44.7272 -98.4817 82° East 512 589 37,000  Level Minneapolis Center
Thu 05:08:56 PM 44.7514 -98.2564 81° East 514 592 37,000  Level Minneapolis Center
Thu 05:09:59 PM 44.7717 -98.0583 82° East 514 592 37,000  Level Minneapolis Center
Thu 05:11:01 PM 44.7917 -97.8583 82° East 515 593 37,000  Level Minneapolis Center
Thu 05:12:03 PM 44.8122 -97.6597 82° East 514 592 37,000  Level Minneapolis Center
Thu 05:13:05 PM 44.8303 -97.4589 83° East 515 593 37,000  Level Minneapolis Center
Thu 05:14:07 PM 44.8542 -97.2192 82° East 515 593 37,000  Level Minneapolis Center
Thu 05:15:09 PM 44.8722 -97.0178 83° East 517 595 37,000  Level Minneapolis Center
Thu 05:16:11 PM 44.8903 -96.8164 83° East 517 595 37,000  Level Minneapolis Center
Thu 05:17:13 PM 44.9083 -96.6144 83° East 518 596 37,000  Level Minneapolis Center
Thu 05:18:15 PM 44.9258 -96.4117 83° East 520 598 37,000  Level Minneapolis Center
Thu 05:19:17 PM 44.9436 -96.2078 83° East 521 600 37,000  Level Minneapolis Center
Thu 05:20:19 PM 44.9614 -96.0044 83° East 520 598 37,000  Level Minneapolis Center
Thu 05:21:22 PM 44.9800 -95.7614 84° East 518 596 37,000  Level Minneapolis Center
Thu 05:22:24 PM 44.9964 -95.5586 83° East 518 596 37,000  Level Minneapolis Center
Thu 05:23:26 PM 45.0131 -95.3556 83° East 519 597 37,000  Level Minneapolis Center
Thu 05:24:28 PM 45.0283 -95.1511 84° East 521 600 37,000  Level Minneapolis Center
Thu 05:25:30 PM 45.0439 -94.9461 84° East 524 603 37,000  Level Minneapolis Center
Thu 05:26:32 PM 45.0583 -94.7411 84° East 525 604 37,000  Level Minneapolis Center
Thu 05:27:34 PM 45.0728 -94.5322 84° East 524 603 37,000  Level Minneapolis Center
Thu 05:28:36 PM 45.0867 -94.3269 84° East 524 603 37,000  Level Minneapolis Center
Thu 05:33:57 PM 45.0610 -93.1670 84° East 575 662 37,000  Level FlightAware ADS-B
Thu 05:34:39 PM 45.0020 -93.0280 121° Southeast 574 661 37,000  Level FlightAware ADS-B
Thu 05:35:23 PM 44.9430 -92.8880 121° Southeast 575 662 37,000  Level FlightAware ADS-B
Thu 05:36:07 PM 44.8820 -92.7450 121° Southeast 576 663 37,000  Level FlightAware ADS-B
Thu 05:36:45 PM 44.8320 -92.6260 121° Southeast 575 662 37,000  Level FlightAware ADS-B
Thu 05:37:31 PM 44.7690 -92.4790 121° Southeast 573 659 37,000  Level FlightAware ADS-B
Thu 05:38:21 PM 44.7100 -92.3380 120° Southeast 572 658 37,000  Level FlightAware ADS-B
Thu 05:39:03 PM 44.6440 -92.1870 122° Southeast 572 658 37,000  Level FlightAware ADS-B
Thu 05:39:47 PM 44.5820 -92.0450 121° Southeast 573 659 37,000  Level FlightAware ADS-B
Thu 05:40:33 PM 44.5200 -91.9020 121° Southeast 572 658 37,000  Level FlightAware ADS-B
Thu 05:41:13 PM 44.4640 -91.7740 121° Southeast 572 658 37,000  Level FlightAware ADS-B
Thu 05:41:57 PM 44.4030 -91.6350 122° Southeast 572 658 37,000  Level FlightAware ADS-B
Thu 05:42:37 PM 44.3490 -91.5130 122° Southeast 571 657 37,000  Level FlightAware ADS-B
Thu 05:43:18 PM 44.2930 -91.3860 122° Southeast 568 654 37,000  Level FlightAware ADS-B
Thu 05:44:01 PM 44.2310 -91.2490 122° Southeast 564 649 37,000  Level FlightAware ADS-B
Thu 05:44:45 PM 44.1710 -91.1130 122° Southeast 565 650 37,000  Level FlightAware ADS-B
Thu 05:45:19 PM 44.1250 -91.0110 122° Southeast 564 649 37,000  Level FlightAware ADS-B
Thu 05:46:05 PM 44.0640 -90.8760 122° Southeast 565 650 37,000  Level FlightAware ADS-B
Thu 05:47:05 PM 43.9790 -90.6840 122° Southeast 562 647 37,000  Level FlightAware ADS-B
Thu 05:47:46 PM 43.9350 -90.5500 114° Southeast 557 641 37,000  Level FlightAware ADS-B
Thu 05:48:29 PM 43.9030 -90.4050 107° East 553 636 37,000  Level FlightAware ADS-B
Thu 05:49:12 PM 43.8720 -90.2590 106° East 553 636 37,000  Level FlightAware ADS-B
Thu 05:49:49 PM 43.8450 -90.1320 106° East 555 639 37,000 667 Level FlightAware ADS-B
Thu 05:50:33 PM 43.8140 -89.9840 106° East 547 629 37,900 1,116 Climbing FlightAware ADS-B
Thu 05:51:15 PM 43.7840 -89.8440 106° East 545 627 38,600 767 Climbing FlightAware ADS-B
Thu 05:51:59 PM 43.7520 -89.6940 106° East 542 624 39,000 286 Climbing FlightAware ADS-B
Thu 05:52:39 PM 43.7240 -89.5650 107° East 539 620 39,000  Level FlightAware ADS-B
Thu 05:53:19 PM 43.6950 -89.4320 107° East 538 619 39,000  Level FlightAware ADS-B
Thu 05:54:02 PM 43.6670 -89.3010 106° East 540 621 39,000  Level FlightAware ADS-B
Thu 05:54:45 PM 43.6350 -89.1570 107° East 540 621 39,000  Level FlightAware ADS-B
Thu 05:55:26 PM 43.6040 -89.0170 107° East 538 619 39,000  Level FlightAware ADS-B
Thu 05:56:12 PM 43.5700 -88.8660 107° East 534 615 39,000  Level FlightAware ADS-B
Thu 05:56:52 PM 43.5410 -88.7370 107° East 533 613 39,000  Level FlightAware ADS-B
Thu 05:57:36 PM 43.5090 -88.5930 107° East 535 616 39,000  Level FlightAware ADS-B
Thu 05:58:14 PM 43.4820 -88.4730 107° East 535 616 39,000  Level FlightAware ADS-B
Thu 05:59:09 PM 43.4400 -88.2910 108° East 535 616 39,000  Level FlightAware ADS-B
Thu 05:59:51 PM 43.4100 -88.1610 108° East 531 611 39,000  Level FlightAware ADS-B
Thu 06:00:33 PM 43.3780 -88.0240 108° East 527 606 39,000  Level FlightAware ADS-B
Thu 06:01:20 PM 43.3440 -87.8740 107° East 527 606 39,000  Level FlightAware ADS-B
Thu 06:01:55 PM 43.3170 -87.7610 108° East 526 605 39,000  Level FlightAware ADS-B
Thu 06:02:43 PM 43.2820 -87.6120 108° East 524 603 39,000  Level FlightAware ADS-B
Thu 06:03:25 PM 43.2490 -87.4750 108° East 526 605 39,000  Level FlightAware ADS-B
Thu 06:04:07 PM 43.2180 -87.3450 108° East 531 611 39,000  Level FlightAware ADS-B
Thu 06:04:45 PM 43.1890 -87.2250 108° East 531 611 39,000  Level FlightAware ADS-B
Thu 06:05:27 PM 43.1570 -87.0900 108° East 526 605 39,000  Level FlightAware ADS-B
Thu 06:06:13 PM 43.1210 -86.9440 109° East 525 604 39,000  Level FlightAware ADS-B
Thu 06:06:49 PM 43.0940 -86.8310 108° East 525 604 39,000  Level FlightAware ADS-B
Thu 06:07:37 PM 43.0640 -86.6810 105° East 520 598 39,000  Level FlightAware ADS-B
Thu 06:08:16 PM 43.0490 -86.5520 99° East 518 596 39,000  Level FlightAware ADS-B
Thu 06:08:58 PM 43.0350 -86.4180 98° East 515 593 39,000  Level FlightAware ADS-B
Thu 06:09:42 PM 43.0200 -86.2780 98° East 512 589 39,000  Level FlightAware ADS-B
Thu 06:10:18 PM 43.0070 -86.1600 99° East 513 590 39,000  Level FlightAware ADS-B
Thu 06:11:06 PM 42.9910 -86.0090 98° East 513 590 39,000 733 Level FlightAware ADS-B
Thu 06:11:48 PM 42.9770 -85.8760 98° East 499 574 40,100 1,500 Climbing FlightAware ADS-B
Thu 06:12:26 PM 42.9650 -85.7590 98° East 481 554 41,000 659 Climbing FlightAware ADS-B
Thu 06:13:10 PM 42.9510 -85.6300 98° East 472 543 41,000  Level FlightAware ADS-B
Thu 06:13:54 PM 42.9430 -85.4980 95° East 476 548 41,000  Level FlightAware ADS-B
Thu 06:14:37 PM 42.9430 -85.3680 90° East 481 554 41,000  Level FlightAware ADS-B
Thu 06:14:57 PM 42.9440 -85.3070 89° East 483 556 41,000  Level FlightAware ADS-B
Thu 06:19:21 PM 42.9480 -84.5190 89° East 489 563 41,000  Level FlightAware ADS-B
Thu 06:21:11 PM 42.9510 -84.1700 89° East 492 566 41,000  Level FlightAware ADS-B
Thu 06:22:06 PM 42.9490 -83.9980 91° East 499 574 41,000  Level FlightAware ADS-B
Thu 06:22:47 PM 42.9410 -83.8690 95° East 499 574 41,000  Level FlightAware ADS-B
Thu 06:23:27 PM 42.9310 -83.7480 96° East 502 578 41,000  Level FlightAware ADS-B
Thu 06:24:08 PM 42.9180 -83.6190 98° East 501 577 41,000  Level FlightAware ADS-B
Thu 06:24:49 PM 42.9030 -83.4890 99° East 502 578 41,000  Level FlightAware ADS-B
Thu 06:25:34 PM 42.8870 -83.3540 99° East 500 575 41,000  Level FlightAware ADS-B
Thu 06:26:53 PM 42.8560 -83.1020 99° East 505 581 41,000  Level FlightAware ADS-B
Thu 06:27:42 PM 42.8350 -82.9530 101° East 489 563 41,000  Level FlightAware ADS-B
Thu 06:28:21 PM 42.8190 -82.8550 103° East 475 547 41,000  Level FlightAware ADS-B
Thu 06:29:01 PM 42.8020 -82.7450 102° East 462 532 41,000  Level FlightAware ADS-B
Thu 06:30:29 PM 42.7610 -82.4940 102° East 469 540 41,000  Level FlightAware ADS-B
Thu 06:31:03 PM 42.7440 -82.3950 103° East 476 548 41,000  Level FlightAware ADS-B
Thu 06:31:47 PM 42.7200 -82.2580 103° East 484 557 41,000  Level FlightAware ADS-B
Thu 06:32:29 PM 42.7010 -82.1480 103° East 486 559 41,000  Level FlightAware ADS-B
Thu 06:33:13 PM 42.6770 -82.0070 103° East 485 558 41,000  Level FlightAware ADS-B
Thu 06:33:53 PM 42.6570 -81.8960 104° East 479 551 41,000  Level FlightAware ADS-B
Thu 06:34:40 PM 42.6320 -81.7540 103° East 479 551 41,000  Level FlightAware ADS-B
Thu 06:35:20 PM 42.6110 -81.6360 104° East 479 551 41,000  Level FlightAware ADS-B
Thu 06:36:02 PM 42.5870 -81.5020 104° East 481 554 41,000  Level FlightAware ADS-B
Thu 06:36:54 PM 42.5630 -81.3680 104° East 483 556 41,000  Level FlightAware ADS-B
Thu 06:38:17 PM 42.5180 -81.1200 104° East 483 556 41,000  Level FlightAware ADS-B
Thu 06:39:04 PM 42.4920 -80.9820 104° East 476 548 41,000  Level FlightAware ADS-B
Thu 06:39:44 PM 42.4700 -80.8620 104° East 476 548 41,000  Level FlightAware ADS-B
Thu 06:40:40 PM 42.4420 -80.7100 104° East 478 550 41,000  Level FlightAware ADS-B
Thu 06:41:52 PM 42.4020 -80.4990 104° East 473 544 41,000  Level FlightAware ADS-B
Thu 06:44:17 PM 42.3190 -80.0670 104° East 473 544 41,000  Level FlightAware ADS-B
Thu 06:44:52 PM 42.3020 -79.9780 104° East 472 543 41,000  Level FlightAware ADS-B
Thu 06:45:37 PM 42.2770 -79.8480 105° East 471 542 41,000  Level FlightAware ADS-B
Thu 06:46:17 PM 42.2540 -79.7350 105° East 473 544 41,000  Level FlightAware ADS-B
Thu 06:47:02 PM 42.2280 -79.6040 105° East 476 548 41,000  Level FlightAware ADS-B
Thu 06:47:42 PM 42.2050 -79.4870 105° East 481 554 41,000  Level FlightAware ADS-B
Thu 06:48:29 PM 42.1790 -79.3600 105° East 483 556 41,000  Level FlightAware ADS-B
Thu 06:49:07 PM 42.1560 -79.2450 105° East 480 552 41,000  Level FlightAware ADS-B
Thu 06:49:47 PM 42.1320 -79.1260 105° East 476 548 41,000  Level FlightAware ADS-B
Thu 06:50:33 PM 42.1070 -79.0010 105° East 476 548 41,000  Level FlightAware ADS-B
Thu 06:51:22 PM 42.0780 -78.8640 106° East 476 548 41,000  Level FlightAware ADS-B
Thu 06:52:12 PM 42.0480 -78.7140 105° East 471 542 41,000  Level FlightAware ADS-B
Thu 06:52:52 PM 42.0240 -78.6020 106° East 472 543 41,000  Level FlightAware ADS-B
Thu 06:53:32 PM 42.0020 -78.4970 106° East 474 545 41,000  Level FlightAware ADS-B
Thu 06:54:12 PM 41.9790 -78.3860 106° East 471 542 41,000  Level FlightAware ADS-B
Thu 06:54:52 PM 41.9530 -78.2640 106° East 464 534 41,000  Level FlightAware ADS-B
Thu 06:56:47 PM 41.8850 -77.9470 106° East 459 528 41,000  Level FlightAware ADS-B
Thu 06:57:33 PM 41.8600 -77.8350 107° East 458 527 41,000  Level FlightAware ADS-B
Thu 06:58:12 PM 41.8300 -77.7190 109° East 458 527 41,000  Level FlightAware ADS-B
Thu 06:58:52 PM 41.8030 -77.6170 110° East 458 527 41,000  Level FlightAware ADS-B
Thu 06:59:37 PM 41.7700 -77.4920 109° East 458 527 41,000  Level FlightAware ADS-B
Thu 07:00:22 PM 41.7410 -77.3840 110° East 458 527 41,000  Level FlightAware ADS-B
Thu 07:00:56 PM 41.7124 -77.2766 110° East 459 528 41,000  Level FlightAware ADS-B
Thu 07:01:49 PM 41.6740 -77.1339 110° East 457 526 41,000 -189 Level FlightAware ADS-B
Thu 07:02:31 PM 41.6445 -77.0248 110° East 451 519 40,700 -1,068 Descending FlightAware ADS-B
Thu 07:03:02 PM 41.6221 -76.9426 110° East 461 531 39,700 -1,475 Descending FlightAware ADS-B
Thu 07:03:32 PM 41.6000 -76.8615 110° East 462 532 39,200 -984 Descending FlightAware ADS-B
Thu 07:04:03 PM 41.5779 -76.7803 110° East 460 529 38,700 -1,082 Descending FlightAware ADS-B
Thu 07:04:33 PM 41.5556 -76.6991 110° East 461 531 38,100 -1,258 Descending FlightAware ADS-B
Thu 07:05:05 PM 41.5324 -76.6148 110° East 462 532 37,400 -1,065 Descending FlightAware ADS-B
Thu 07:05:35 PM 41.5102 -76.5342 110° East 464 534 37,000 -400 Descending FlightAware ADS-B
Thu 07:06:05 PM 41.4878 -76.4532 110° East 469 540 37,000  Level FlightAware ADS-B
Thu 07:06:36 PM 41.4650 -76.3708 110° East 467 537 37,000  Level FlightAware ADS-B
Thu 07:07:06 PM 41.4421 -76.2886 110° East 462 532 37,000  Level FlightAware ADS-B
Thu 07:07:39 PM 41.4183 -76.2034 110° East 460 529 37,000 -94 Level FlightAware ADS-B
Thu 07:08:10 PM 41.3950 -76.1203 110° East 462 532 36,900 -1,574 Descending FlightAware ADS-B
Thu 07:08:40 PM 41.3717 -76.0381 111° Southeast 483 556 35,400 -3,097 Descending FlightAware ADS-B
Thu 07:09:12 PM 41.3466 -75.9493 111° Southeast 488 562 33,700 -3,238 Descending FlightAware ADS-B
Thu 07:09:43 PM 41.3224 -75.8632 110° East 491 565 32,000 -3,070 Descending FlightAware ADS-B
Thu 07:09:55 PM 41.3122 -75.8291 112° Southeast 487 560 31,500 -2,714 Descending FlightAware ADS-B
Thu 07:10:25 PM 41.2825 -75.7504 117° Southeast 466 536 30,100 -3,100 Descending FlightAware ADS-B
Thu 07:10:55 PM 41.2539 -75.6750 117° Southeast 451 519 28,400 -3,153 Descending FlightAware ADS-B
Thu 07:11:24 PM 41.2280 -75.6030 116° Southeast 439 505 27,000 -2,542 Descending FlightAware ADS-B
Thu 07:11:54 PM 41.1992 -75.5348 119° Southeast 426 490 25,900 -2,339 Descending FlightAware ADS-B
Thu 07:12:23 PM 41.1701 -75.4686 120° Southeast 426 490 24,700 -2,464 Descending FlightAware ADS-B
Thu 07:12:50 PM 41.1456 -75.4057 117° Southeast 430 495 23,600 -1,552 Descending FlightAware ADS-B
Thu 07:13:21 PM 41.1250 -75.3316 110° East 413 475 23,200 -600 Descending FlightAware ADS-B
Thu 07:13:50 PM 41.1080 -75.2625 108° East 401 461 23,000 -200 Descending FlightAware ADS-B
Thu 07:14:21 PM 41.0890 -75.1921 110° East 407 468 23,000  Level FlightAware ADS-B
Thu 07:14:51 PM 41.0685 -75.1211 111° Southeast 409 471 23,000  Level FlightAware ADS-B
Thu 07:15:22 PM 41.0470 -75.0471 111° Southeast 412 474 23,000 -95 Level FlightAware ADS-B
Thu 07:15:54 PM 41.0252 -74.9714 111° Southeast 423 487 22,900  Descending FlightAware ADS-B
Thu 07:16:21 PM 41.0068 -74.9063 111° Southeast 424 488 23,000 133 Climbing FlightAware ADS-B
Thu 07:16:39 PM 40.9969 -74.8611 106° East 424 488 23,000  Level FlightAware ADS-B
Thu 07:17:10 PM 40.9860 -74.7826 100° East 424 488 23,000  Level FlightAware ADS-B
Thu 07:17:44 PM 40.9772 -74.6994 98° East 398 458 23,000 -469 Level FlightAware ADS-B
Thu 07:18:14 PM 40.9697 -74.6279 98° East 385 443 22,500 -1,000 Descending FlightAware ADS-B
Thu 07:18:44 PM 40.9625 -74.5599 98° East 370 426 22,000 -968 Descending FlightAware ADS-B
Thu 07:19:16 PM 40.9545 -74.4879 98° East 359 413 21,500 -1,125 Descending FlightAware ADS-B
Thu 07:19:48 PM 40.9471 -74.4216 98° East 350 403 20,800 -1,406 Descending FlightAware ADS-B
Thu 07:20:20 PM 40.9394 -74.3529 98° East 346 398 20,000 -1,429 Descending FlightAware ADS-B
Thu 07:20:27 PM 40.9378 -74.3384 98° East 19,900 -1,200 Descending FlightAware ADS-B
Thu 07:20:30 PM 40.9371 -74.3319 98° East 344 396 19,800 -1,565 Descending FlightAware ADS-B
Thu 07:20:50 PM 40.9324 -74.2908 99° East 342 394 19,300 -1,297 Descending FlightAware ADS-B
Thu 07:21:07 PM 40.9286 -74.2565 98° East 343 395 19,000 -545 Descending FlightAware ADS-B
Thu 07:21:23 PM 40.9249 -74.2239 99° East 335 386 19,000  Level FlightAware ADS-B
Thu 07:21:37 PM 40.9217 -74.1954 98° East 336 387 19,000  Level FlightAware ADS-B
Thu 07:21:51 PM 40.9185 -74.1677 99° East 338 389 19,000  Level FlightAware ADS-B
Thu 07:21:59 PM 40.9156 -74.1509 103° East 335 386 19,000  Level FlightAware ADS-B
Thu 07:22:05 PM 40.9128 -74.1395 108° East 333 383 19,000 -429 Level FlightAware ADS-B
Thu 07:22:13 PM 40.9083 -74.1251 112° Southeast 329 379 18,900 -429 Descending FlightAware ADS-B
Thu 07:22:19 PM 40.9044 -74.1147 116° Southeast 328 377 18,900 -667 Level FlightAware ADS-B
Thu 07:22:22 PM 40.9016 -74.1084 120° Southeast 325 374 18,800 -1,059 Descending FlightAware ADS-B
Thu 07:22:36 PM 40.8902 -74.0852 123° Southeast 322 371 18,600 -1,000 Descending FlightAware ADS-B
Thu 07:22:40 PM 40.8874 -74.0802 127° Southeast 319 367 18,500 -1,333 Descending FlightAware ADS-B
Thu 07:22:45 PM 40.8825 -74.0731 132° Southeast 317 365 18,400 -1,714 Descending FlightAware ADS-B
Thu 07:22:47 PM 40.8798 -74.0696 136° Southeast 315 362 18,300 -1,714 Descending FlightAware ADS-B
Thu 07:22:52 PM 40.8740 -74.0635 142° Southeast 311 358 18,200 -1,714 Descending FlightAware ADS-B
Thu 07:22:54 PM 40.8717 -74.0613 144° Southeast 311 358 18,100 -1,714 Descending FlightAware ADS-B
Thu 07:22:59 PM 40.8657 -74.0567 150° Southeast 308 354 18,000 -1,500 Descending FlightAware ADS-B
Thu 07:23:02 PM 40.8624 -74.0546 154° Southeast 305 351 17,900 -1,714 Descending FlightAware ADS-B
Thu 07:23:06 PM 40.8567 -74.0518 160° South 303 349 17,800 -1,200 Descending FlightAware ADS-B
Thu 07:23:12 PM 40.8494 -74.0492 165° South 301 346 17,700 -1,500 Descending FlightAware ADS-B
Thu 07:23:18 PM 40.8401 -74.0471 170° South 299 344 17,500 -1,742 Descending FlightAware ADS-B
Thu 07:23:43 PM 40.8063 -74.0425 174° South 297 342 16,800 -1,636 Descending FlightAware ADS-B
Thu 07:23:51 PM 40.7952 -74.0413 175° South 296 341 16,600 -1,161 Descending FlightAware ADS-B
Thu 07:24:14 PM 40.7642 -74.0381 176° South 292 336 16,200 -706 Descending FlightAware ADS-B
Thu 07:24:25 PM 40.7494 -74.0367 176° South 292 336 16,200 -364 Level FlightAware ADS-B
Thu 07:24:47 PM 40.7206 -74.0338 176° South 288 331 16,000 -789 Descending FlightAware ADS-B
Thu 07:25:03 PM 40.6995 -74.0316 175° South 286 329 15,700 -1,161 Descending FlightAware ADS-B
Thu 07:25:18 PM 40.6794 -74.0295 175° South 285 328 15,400 -1,467 Descending FlightAware ADS-B
Thu 07:25:48 PM 40.6395 -74.0248 175° South 281 323 14,600 -1,500 Descending FlightAware ADS-B
Thu 07:26:22 PM 40.5964 -74.0198 175° South 277 319 13,800 -1,135 Descending FlightAware ADS-B
Thu 07:27:02 PM 40.5457 -74.0134 175° South 274 315 13,200 -655 Descending FlightAware ADS-B
Thu 07:27:17 PM 40.5274 -74.0062 163° South 280 322 13,200  Level FlightAware ADS-B
Thu 07:27:33 PM 40.5097 -73.9903 146° Southeast 286 329 13,200  Level FlightAware ADS-B
Thu 07:28:04 PM 40.4781 -73.9561 141° Southeast 288 331 13,200 -97 Level FlightAware ADS-B
Thu 07:28:35 PM 40.4465 -73.9219 141° Southeast 286 329 13,100 -787 Descending FlightAware ADS-B
Thu 07:29:05 PM 40.4154 -73.8892 141° Southeast 284 327 12,400 -1,452 Descending FlightAware ADS-B
Thu 07:29:37 PM 40.3828 -73.8557 142° Southeast 280 322 11,600 -1,385 Descending FlightAware ADS-B
Thu 07:30:10 PM 40.3499 -73.8216 142° Southeast 275 316 10,900 -1,463 Descending FlightAware ADS-B
Thu 07:30:18 PM 40.3419 -73.8118 137° Southeast 279 321 10,600 -1,765 Descending FlightAware ADS-B
Thu 07:30:27 PM 40.3355 -73.7999 125° Southeast 285 328 10,400 -1,385 Descending FlightAware ADS-B
Thu 07:30:31 PM 40.3333 -73.7938 115° Southeast 287 330 10,300 -1,500 Descending FlightAware ADS-B
Thu 07:30:39 PM 40.3302 -73.7786 105° East 294 338 10,100 -1,500 Descending FlightAware ADS-B
Thu 07:30:43 PM 40.3298 -73.7714 94° East 298 343 10,000 -1,286 Descending FlightAware ADS-B
Thu 07:30:53 PM 40.3312 -73.7551 84° East 302 348 9,800 -1,200 Descending FlightAware ADS-B
Thu 07:31:03 PM 40.3371 -73.7363 68° East 311 358 9,600 -1,429 Descending FlightAware ADS-B
Thu 07:31:35 PM 40.3692 -73.6927 46° Northeast 317 365 8,800 -1,412 Descending FlightAware ADS-B
Thu 07:31:54 PM 40.3893 -73.6683 43° Northeast 316 364 8,400 -1,235 Descending FlightAware ADS-B
Thu 07:32:09 PM 40.4052 -73.6487 43° Northeast 311 358 8,100 -1,174 Descending FlightAware ADS-B
Thu 07:32:40 PM 40.4375 -73.6086 43° Northeast 306 352 7,500 -1,277 Descending FlightAware ADS-B
Thu 07:32:56 PM 40.4538 -73.5882 44° Northeast 306 352 7,100 -1,200 Descending FlightAware ADS-B
Thu 07:33:15 PM 40.4722 -73.5651 44° Northeast 301 346 6,800 -1,161 Descending FlightAware ADS-B
Thu 07:33:58 PM 40.5180 -73.5150 40° Northeast 294 338 5,900 -1,235 Descending FlightAware ADS-B
Thu 07:34:23 PM 40.5460 -73.4900 34° Northeast 293 337 5,400 -1,317 Descending FlightAware ADS-B
Thu 07:34:39 PM 40.5640 -73.4740 34° Northeast 292 336 5,000 -1,364 Descending FlightAware ADS-B
Thu 07:35:07 PM 40.5990 -73.4570 20° North 294 338 4,400 -1,317 Descending FlightAware ADS-B
Thu 07:35:20 PM 40.6170 -73.4580 358° North 292 336 4,100 -1,158 Descending FlightAware ADS-B
Thu 07:36:04 PM 40.6750 -73.4690 352° North 283 326 3,300 -750 Descending FlightAware ADS-B
Thu 07:36:32 PM 40.7050 -73.4920 330° Northwest 262 302 3,200 -158 Descending FlightAware ADS-B
Thu 07:36:42 PM 40.7150 -73.5000 329° Northwest 254 292 3,200  Level FlightAware ADS-B
Thu 07:37:10 PM 40.7420 -73.5210 329° Northwest 235 270 3,200  Level FlightAware ADS-B
Thu 07:37:26 PM 40.7560 -73.5310 332° Northwest 220 253 3,200  Level FlightAware ADS-B
Thu 07:37:56 PM 40.7820 -73.5510 330° Northwest 210 242 3,200  Level FlightAware ADS-B
Thu 07:38:08 PM 40.7910 -73.5600 323° Northwest 206 237 3,200  Level FlightAware ADS-B
Thu 07:38:24 PM 40.7970 -73.5780 294° West 196 226 3,200  Level FlightAware ADS-B
Thu 07:38:52 PM 40.7920 -73.6070 257° West 182 209 3,200  Level FlightAware ADS-B
Thu 07:39:04 PM 40.7870 -73.6200 243° Southwest 183 211 3,200 -154 Level FlightAware ADS-B
Thu 07:39:31 PM 40.7770 -73.6440 241° Southwest 182 209 3,100 -545 Descending FlightAware ADS-B
Thu 07:39:59 PM 40.7580 -73.6660 221° Southwest 176 203 2,700 -857 Descending FlightAware ADS-B
Thu 07:40:27 PM 40.7390 -73.6820 213° Southwest 175 201 2,300 -857 Descending FlightAware ADS-B
Thu 07:40:55 PM 40.7210 -73.6960 211° Southwest 156 180 1,900 -818 Descending FlightAware ADS-B
Thu 07:41:11 PM 40.7110 -73.7030 208° Southwest 143 165 1,700 -682 Descending FlightAware ADS-B
Thu 07:41:39 PM 40.6960 -73.7150 211° Southwest 128 147 1,400 -643 Descending FlightAware ADS-B
Thu 07:42:07 PM 40.6810 -73.7270 211° Southwest 134 154 1,100 -737 Descending FlightAware ADS-B
Thu 07:42:36 PM 40.6650 -73.7390 210° Southwest 136 157 700 -828 Descending FlightAware ADS-B
Thu 07:42:45 PM 40.6604 -73.7430 213° Southwest 600 -667 Descending FlightAware ADS-B
Thu 07:43:32 PM 40.6360 -73.7620 211° Southwest 105 121 -766 Descending FlightAware ADS-B
Thu 07:44:01 PM 40.6300 -73.7670 212° Southwest 23 26  Level FlightAware ADS-B
Thu 07:44:09 PM 40.6300 -73.7680 270° West 19 22  Level FlightAware ADS-B
Thu 07:44:27 PM 40.6290 -73.7690 217° Southwest 30 35  Level FlightAware ADS-B
Thu 07:44:41 PM 40.6300 -73.7700 323° Northwest 16 18  Level FlightAware ADS-B
Thu 07:45:11 PM 40.6320 -73.7700 360° North 18 21  Level FlightAware ADS-B
Thu 07:45:37 PM 40.6330 -73.7690 37° Northeast 26 30  Level FlightAware ADS-B
Thu 07:45:49 PM 40.6340 -73.7700 323° Northwest 29 33  Level FlightAware ADS-B
Thu 07:46:05 PM 40.6340 -73.7710 270° West 34 39  Level FlightAware ADS-B
Thu 07:46:33 PM 40.6350 -73.7730 303° West 21 24  Level FlightAware ADS-B
Thu 07:47:13 PM 40.6350 -73.7740 270° West  Level FlightAware ADS-B

Login

Don't have an account? Register now (free) for customized features, flight alerts, and more!